Time;durP1;ratioP1;P1;durP2;ratioP2;P2;SDS_P1;SDS_P2;PMS_P1;PMS_P2;Temp;Humidity;BMP_temperature;BMP_pressure;BME280_temperature;BME280_humidity;BME280_pressure;Samples;Min_cycle;Max_cycle;Signal;HPM_P1;HPM_P2
2022/01/07 00:01:36;;;;;;;14.13;5.50;;;3.60;99.90;;;;;;5060327;28;20090;-84
2022/01/07 00:04:21;;;;;;;13.07;5.63;;;4.70;99.90;;;;;;5075388;28;20051;-85
2022/01/07 00:07:05;;;;;;;;;;;3.60;99.90;;;;;;5075661;28;20039;-84
2022/01/07 00:09:49;;;;;;;13.60;3.97;;;3.60;99.90;;;;;;5059676;28;19923;-84
2022/01/07 00:12:33;;;;;;;;;;;3.60;99.90;;;;;;5075557;28;20404;-84
2022/01/07 00:15:18;;;;;;;18.13;6.40;;;4.30;99.90;;;;;;5075045;28;19928;-84
2022/01/07 00:18:02;;;;;;;11.67;5.30;;;3.60;99.90;;;;;;5059413;28;20090;-85
2022/01/07 00:20:46;;;;;;;13.33;6.00;;;3.60;99.90;;;;;;5074633;28;20098;-85
2022/01/07 00:23:31;;;;;;;14.87;5.23;;;3.60;99.90;;;;;;5075092;28;20453;-84
2022/01/07 00:26:15;;;;;;;;;;;3.70;99.90;;;;;;5060333;28;20097;-85
2022/01/07 00:28:59;;;;;;;15.25;4.88;;;3.60;99.90;;;;;;5059169;28;19920;-84
2022/01/07 00:31:43;;;;;;;;;;;3.60;99.90;;;;;;5059621;28;20151;-84
2022/01/07 00:34:27;;;;;;;15.65;5.25;;;3.50;99.90;;;;;;5074732;28;20276;-84
2022/01/07 00:37:12;;;;;;;;;;;3.60;99.90;;;;;;5059950;28;20601;-85
2022/01/07 00:39:56;;;;;;;10.50;4.55;;;3.60;99.90;;;;;;5074285;28;20355;-84
2022/01/07 00:42:41;;;;;;;19.90;4.70;;;3.50;99.90;;;;;;5074532;28;20071;-85
2022/01/07 00:45:25;;;;;;;17.70;5.37;;;3.60;99.90;;;;;;5074727;28;20133;-85
2022/01/07 00:48:10;;;;;;;18.83;5.10;;;3.40;99.90;;;;;;5074686;28;20063;-82
2022/01/07 00:50:54;;;;;;;;;;;4.50;99.90;;;;;;5074409;28;20043;-81
2022/01/07 00:53:38;;;;;;;14.00;5.35;;;3.80;99.90;;;;;;5074450;28;19953;-82
2022/01/07 00:56:22;;;;;;;;;;;4.40;99.90;;;;;;5074663;28;20509;-82
2022/01/07 00:59:06;;;;;;;15.23;5.93;;;4.00;99.90;;;;;;5073870;28;19927;-82
2022/01/07 01:01:51;;;;;;;11.27;5.70;;;3.20;99.90;;;;;;5073744;28;20044;-82
2022/01/07 01:04:35;;;;;;;14.35;5.30;;;3.10;99.90;;;;;;5059023;28;20047;-82
2022/01/07 01:07:19;;;;;;;;;;;3.10;99.90;;;;;;5074478;28;20052;-83
2022/01/07 01:10:07;;;;;;;16.50;5.68;;;3.00;99.90;;;;;;5044398;28;19963;-82
2022/01/07 01:12:52;;;;;;;11.90;4.97;;;2.90;99.90;;;;;;5058264;28;20109;-82
2022/01/07 01:15:36;;;;;;;12.20;6.47;;;2.80;99.90;;;;;;5073873;28;20055;-83
2022/01/07 01:18:20;;;;;;;13.82;5.70;;;3.10;99.90;;;;;;5073892;28;20040;-82
2022/01/07 01:21:04;;;;;;;14.93;6.30;;;2.80;99.90;;;;;;5072602;28;20036;-83
2022/01/07 01:23:50;;;;;;;;;;;2.80;99.90;;;;;;5074206;28;20450;-84
2022/01/07 01:26:34;;;;;;;17.20;5.43;;;2.70;99.90;;;;;;5058649;28;20354;-83
2022/01/07 01:29:20;;;;;;;10.25;5.20;;;2.80;99.90;;;;;;5058442;28;20528;-82
2022/01/07 01:32:05;;;;;;;14.30;5.50;;;3.10;99.90;;;;;;5058071;28;20047;-83
2022/01/07 01:34:49;;;;;;;12.67;5.60;;;2.60;99.90;;;;;;5058306;28;20051;-83
2022/01/07 01:37:33;;;;;;;12.53;5.60;;;2.60;99.90;;;;;;5073631;28;20031;-83
2022/01/07 01:40:20;;;;;;;14.87;5.60;;;2.70;99.90;;;;;;5073406;28;20043;-84
2022/01/07 01:43:05;;;;;;;12.63;5.57;;;3.60;99.90;;;;;;5057877;28;20439;-83
2022/01/07 01:45:49;;;;;;;17.23;6.60;;;3.20;99.90;;;;;;5058316;28;20117;-83
2022/01/07 01:48:34;;;;;;;15.70;6.17;;;3.20;99.90;;;;;;5073291;28;20044;-83
2022/01/07 01:51:18;;;;;;;14.90;6.30;;;3.00;99.90;;;;;;5044239;28;20097;-83
2022/01/07 01:54:04;;;;;;;17.47;6.00;;;3.30;99.90;;;;;;5057658;28;20085;-83
2022/01/07 01:56:48;;;;;;;12.23;6.13;;;2.60;99.90;;;;;;5058164;28;20404;-83
2022/01/07 01:59:32;;;;;;;;;;;2.50;99.90;;;;;;5073488;28;20400;-84
2022/01/07 02:02:17;;;;;;;;;;;2.50;99.90;;;;;;5073059;28;19995;-83
2022/01/07 02:05:01;;;;;;;18.95;7.20;;;3.40;99.90;;;;;;5072633;28;20418;-83
2022/01/07 02:07:45;;;;;;;14.57;6.77;;;3.10;99.90;;;;;;5073008;28;20518;-83
2022/01/07 02:10:29;;;;;;;19.80;6.38;;;2.50;99.90;;;;;;5057824;28;20043;-83
2022/01/07 02:13:18;;;;;;;20.27;6.80;;;2.50;99.90;;;;;;5072378;28;20397;-83
2022/01/07 02:16:02;;;;;;;12.63;6.33;;;2.70;99.90;;;;;;5072434;28;20503;-84
2022/01/07 02:18:46;;;;;;;16.00;8.13;;;2.40;99.90;;;;;;5072654;28;20040;-84
2022/01/07 02:21:35;;;;;;;15.70;7.23;;;2.40;99.90;;;;;;5057700;28;20098;-84
2022/01/07 02:24:20;;;;;;;15.80;7.13;;;3.10;99.90;;;;;;5072328;28;20094;-84
2022/01/07 02:27:05;;;;;;;;;;;2.40;99.90;;;;;;5072672;28;20043;-83
2022/01/07 02:29:51;;;;;;;19.07;8.47;;;2.40;99.90;;;;;;5072728;28;19978;-83
2022/01/07 02:32:35;;;;;;;14.73;7.27;;;2.30;99.90;;;;;;5057726;28;20093;-84
2022/01/07 02:35:22;;;;;;;14.87;7.73;;;2.30;99.90;;;;;;5042920;28;20105;-84
2022/01/07 02:38:06;;;;;;;12.33;7.23;;;2.30;99.90;;;;;;5056986;28;20089;-84
2022/01/07 02:40:50;;;;;;;24.13;10.57;;;2.50;99.90;;;;;;5043431;28;20043;-84
2022/01/07 02:43:34;;;;;;;;;;;3.50;99.90;;;;;;5072076;28;20508;-84
2022/01/07 02:46:19;;;;;;;16.85;7.75;;;2.30;99.90;;;;;;5056927;28;19931;-83
2022/01/07 02:49:09;;;;;;;;;;;2.30;99.90;;;;;;5072568;28;20047;-84
2022/01/07 02:51:54;;;;;;;18.03;7.67;;;2.30;99.90;;;;;;5072690;28;19916;-84
2022/01/07 02:54:38;;;;;;;17.87;8.50;;;2.30;99.90;;;;;;5072501;28;20044;-83
2022/01/07 02:57:23;;;;;;;16.23;7.87;;;2.30;99.90;;;;;;5042740;28;20507;-83
2022/01/07 03:00:08;;;;;;;14.83;7.73;;;3.10;99.90;;;;;;5056913;28;20075;-83
2022/01/07 03:02:55;;;;;;;17.00;8.43;;;2.30;99.90;;;;;;5072726;28;20043;-83
2022/01/07 03:05:41;;;;;;;17.17;8.07;;;3.10;99.90;;;;;;5072496;28;20121;-83
2022/01/07 03:08:26;;;;;;;18.33;9.60;;;2.40;99.90;;;;;;5042944;28;20165;-83
2022/01/07 03:11:10;;;;;;;22.30;10.67;;;2.30;99.90;;;;;;5071836;28;20083;-83
2022/01/07 03:13:55;;;;;;;18.23;8.67;;;2.40;99.90;;;;;;5057205;28;20542;-83
2022/01/07 03:16:40;;;;;;;11.97;8.10;;;2.30;99.90;;;;;;5072140;28;20158;-83
2022/01/07 03:19:24;;;;;;;13.67;8.10;;;2.30;99.90;;;;;;5056616;28;20400;-83
2022/01/07 03:22:08;;;;;;;;;;;3.30;99.90;;;;;;5057018;28;20035;-83
2022/01/07 03:24:52;;;;;;;13.48;8.20;;;2.70;99.90;;;;;;5042933;28;19935;-83
2022/01/07 03:27:36;;;;;;;;;;;2.40;99.90;;;;;;5057281;28;20044;-83
2022/01/07 03:30:21;;;;;;;13.13;7.65;;;2.40;99.90;;;;;;5074529;28;20397;-83
2022/01/07 03:33:05;;;;;;;;;;;2.80;99.90;;;;;;5076306;28;20086;-83
2022/01/07 03:35:49;;;;;;;;;;;2.40;99.90;;;;;;5061120;28;20039;-83
2022/01/07 03:38:34;;;;;;;14.07;7.93;;;2.40;99.90;;;;;;5076262;28;19966;-84
2022/01/07 03:41:19;;;;;;;14.50;7.87;;;2.40;99.90;;;;;;5075361;28;20090;-83
2022/01/07 03:44:04;;;;;;;14.60;9.33;;;2.40;99.90;;;;;;5075713;28;20128;-84
2022/01/07 03:46:48;;;;;;;17.00;8.80;;;2.40;99.90;;;;;;5075615;28;20051;-83
2022/01/07 03:49:33;;;;;;;16.13;8.93;;;2.40;99.90;;;;;;5060008;28;20085;-84
2022/01/07 03:52:17;;;;;;;19.73;9.57;;;2.40;99.90;;;;;;5075138;28;20043;-83
2022/01/07 03:55:04;;;;;;;22.10;9.93;;;2.50;99.90;;;;;;5060369;28;20044;-83
2022/01/07 03:57:49;;;;;;;16.07;9.40;;;2.50;99.90;;;;;;5075411;28;20560;-83
2022/01/07 04:00:36;;;;;;;15.17;9.37;;;2.60;99.90;;;;;;5059718;28;20491;-84
2022/01/07 04:03:21;;;;;;;14.53;9.03;;;2.80;99.90;;;;;;5074879;28;20067;-83
2022/01/07 04:06:05;;;;;;;;;;;2.70;99.90;;;;;;5060588;28;20558;-84
2022/01/07 04:08:50;;;;;;;16.33;9.32;;;2.60;99.90;;;;;;5075412;28;19927;-83
2022/01/07 04:11:34;;;;;;;14.00;8.37;;;2.60;99.90;;;;;;5074708;28;20083;-83
2022/01/07 04:14:18;;;;;;;15.67;8.63;;;2.60;99.90;;;;;;5059687;28;20071;-83
2022/01/07 04:17:02;;;;;;;;;;;2.60;99.90;;;;;;5075654;28;20618;-84
2022/01/07 04:19:46;;;;;;;12.73;8.27;;;2.60;99.90;;;;;;5060081;28;19915;-84
2022/01/07 04:22:32;;;;;;;15.75;8.50;;;2.60;99.90;;;;;;5074569;28;20039;-85
2022/01/07 04:25:18;;;;;;;14.33;8.57;;;2.50;99.90;;;;;;5059451;28;20090;-84
2022/01/07 04:28:06;;;;;;;17.00;8.13;;;2.60;99.90;;;;;;5075110;28;20039;-83
2022/01/07 04:30:50;;;;;;;15.33;8.63;;;2.50;99.90;;;;;;5053673;28;20183;-84
2022/01/07 04:33:34;;;;;;;14.27;8.13;;;2.50;99.90;;;;;;5053339;28;20102;-84
2022/01/07 04:36:18;;;;;;;;;;;2.60;99.90;;;;;;5054700;28;20048;-83
2022/01/07 04:39:03;;;;;;;19.20;8.38;;;2.50;99.90;;;;;;5054802;28;19959;-84
2022/01/07 04:41:48;;;;;;;17.27;8.87;;;2.50;99.90;;;;;;5054357;28;20087;-84
2022/01/07 04:44:32;;;;;;;;;;;2.60;99.90;;;;;;5054475;28;20067;-84
2022/01/07 04:47:16;;;;;;;13.05;8.90;;;4.20;99.90;;;;;;5054610;28;19919;-83
2022/01/07 04:50:01;;;;;;;17.53;9.30;;;2.60;99.90;;;;;;5053612;28;20039;-83
2022/01/07 04:52:46;;;;;;;17.50;8.60;;;2.60;99.90;;;;;;5039731;28;20146;-84
2022/01/07 04:55:37;;;;;;;13.33;8.43;;;3.30;99.90;;;;;;5052866;28;20086;-84
2022/01/07 04:58:21;;;;;;;12.23;8.43;;;2.60;99.90;;;;;;5053927;28;20448;-83
2022/01/07 05:01:05;;;;;;;13.03;8.07;;;2.70;99.90;;;;;;5053309;28;20083;-84
2022/01/07 05:03:49;;;;;;;18.52;8.57;;;2.70;99.90;;;;;;5053165;28;20043;-84
2022/01/07 05:06:44;;;;;;;;;;;3.30;99.90;;;;;;5054115;28;20092;-84
2022/01/07 05:09:28;;;;;;;12.82;7.68;;;2.80;99.90;;;;;;5052736;28;19916;-84
2022/01/07 05:12:12;;;;;;;14.47;7.57;;;2.80;99.90;;;;;;5053158;28;20094;-83
2022/01/07 05:14:57;;;;;;;13.07;7.57;;;2.70;99.90;;;;;;5053926;28;20425;-84
2022/01/07 05:17:41;;;;;;;;;;;2.80;99.90;;;;;;5053919;28;20040;-83
2022/01/07 05:20:25;;;;;;;;;;;2.80;99.90;;;;;;5053038;28;20387;-83
2022/01/07 05:23:09;;;;;;;14.23;6.75;;;2.80;99.90;;;;;;5054129;28;20012;-83
2022/01/07 05:25:54;;;;;;;11.50;6.80;;;2.80;99.90;;;;;;5052865;28;20048;-83
2022/01/07 05:28:38;;;;;;;10.10;6.80;;;2.90;99.90;;;;;;5053335;28;20044;-84
2022/01/07 05:31:22;;;;;;;;;;;2.80;99.90;;;;;;5052864;28;20060;-84
2022/01/07 05:34:06;;;;;;;;;;;2.80;99.90;;;;;;5054133;28;19932;-83
2022/01/07 05:36:51;;;;;;;15.30;7.45;;;3.20;99.90;;;;;;5052810;28;20328;-83
2022/01/07 05:39:35;;;;;;;;;;;2.80;99.90;;;;;;5052543;28;20048;-83
2022/01/07 05:42:19;;;;;;;11.02;7.03;;;3.70;99.90;;;;;;5052648;28;20015;-83
2022/01/07 05:45:03;;;;;;;;;;;2.80;99.90;;;;;;5054042;28;20121;-83
2022/01/07 05:47:47;;;;;;;12.45;6.57;;;2.80;99.90;;;;;;5051895;28;19923;-83
2022/01/07 05:50:31;;;;;;;;;;;3.10;99.90;;;;;;5052384;28;20231;-83
2022/01/07 05:53:16;;;;;;;14.55;6.97;;;2.80;99.90;;;;;;5052558;28;19920;-83
2022/01/07 05:56:00;;;;;;;11.70;6.93;;;3.30;99.90;;;;;;5052349;28;20056;-83
2022/01/07 05:58:44;;;;;;;;;;;2.90;99.90;;;;;;5052194;28;20039;-83
2022/01/07 06:01:28;;;;;;;10.38;6.85;;;2.80;99.90;;;;;;5038161;28;19982;-82
2022/01/07 06:04:12;;;;;;;10.60;7.13;;;3.90;99.90;;;;;;5053195;28;20080;-83
2022/01/07 06:06:56;;;;;;;;;;;3.50;99.90;;;;;;5053437;28;20083;-84
2022/01/07 06:09:41;;;;;;;15.88;8.10;;;3.40;99.90;;;;;;5052606;28;20059;-83
2022/01/07 06:12:24;;;;;;;;;;;2.80;99.90;;;;;;5038299;28;20442;-84
2022/01/07 06:15:10;;;;;;;9.57;7.15;;;3.00;99.90;;;;;;5050011;28;19974;-83
2022/01/07 06:17:54;;;;;;;14.47;9.03;;;2.70;99.90;;;;;;5032020;28;20060;-83
2022/01/07 06:20:38;;;;;;;9.33;6.23;;;3.10;99.90;;;;;;5031324;28;20116;-83
2022/01/07 06:23:22;;;;;;;12.80;7.37;;;3.00;99.90;;;;;;5032894;28;20117;-83
2022/01/07 06:26:07;;;;;;;11.33;7.50;;;2.80;99.90;;;;;;5031858;28;20048;-83
2022/01/07 06:28:51;;;;;;;;;;;3.20;99.90;;;;;;5032671;28;20040;-83
2022/01/07 06:31:35;;;;;;;12.27;7.30;;;2.80;99.90;;;;;;5030987;28;19924;-83
2022/01/07 06:34:20;;;;;;;8.97;6.60;;;3.40;99.90;;;;;;5031802;28;20132;-84
2022/01/07 06:37:04;;;;;;;14.67;8.00;;;2.90;99.90;;;;;;5032780;28;20053;-84
2022/01/07 06:39:49;;;;;;;11.40;6.70;;;2.90;99.90;;;;;;5030951;28;20125;-82
2022/01/07 06:42:33;;;;;;;;;;;3.10;99.90;;;;;;5032981;28;20044;-83
2022/01/07 06:45:17;;;;;;;;;;;3.50;99.90;;;;;;5032063;28;19915;-83
2022/01/07 06:48:01;;;;;;;10.43;6.45;;;2.90;99.90;;;;;;5032612;28;19931;-82
2022/01/07 06:50:46;;;;;;;12.40;7.77;;;3.40;99.90;;;;;;5030922;28;20037;-83
2022/01/07 06:53:30;;;;;;;10.73;7.40;;;3.40;99.90;;;;;;5032486;28;20167;-83
2022/01/07 06:56:14;;;;;;;;;;;2.90;99.90;;;;;;5032843;28;20052;-84
2022/01/07 06:58:59;;;;;;;13.82;8.60;;;3.00;99.90;;;;;;5038813;28;19911;-84
2022/01/07 07:01:44;;;;;;;;;;;3.00;99.90;;;;;;5051633;28;20048;-84
2022/01/07 07:04:29;;;;;;;12.50;7.50;;;3.00;99.90;;;;;;5055326;28;20332;-84
2022/01/07 07:07:14;;;;;;;13.80;7.77;;;3.00;99.90;;;;;;5055267;28;20063;-83
2022/01/07 07:09:58;;;;;;;11.73;7.60;;;3.00;99.90;;;;;;5055468;28;20067;-84
2022/01/07 07:12:42;;;;;;;11.10;7.72;;;3.00;99.90;;;;;;5054573;28;20400;-84
2022/01/07 07:15:26;;;;;;;;;;;3.30;99.90;;;;;;5056461;28;20051;-84
2022/01/07 07:18:10;;;;;;;14.75;7.82;;;3.10;99.90;;;;;;5041122;28;19936;-85
2022/01/07 07:20:54;;;;;;;;;;;3.10;99.90;;;;;;5055462;28;20040;-83
2022/01/07 07:23:39;;;;;;;15.27;8.60;;;3.10;99.90;;;;;;5054936;28;20452;-83
2022/01/07 07:26:23;;;;;;;13.20;8.17;;;3.10;99.90;;;;;;5054924;28;20051;-84
2022/01/07 07:29:07;;;;;;;13.27;9.10;;;3.20;99.90;;;;;;5054557;28;20044;-83
2022/01/07 07:31:55;;;;;;;13.77;8.83;;;3.20;99.90;;;;;;5072842;28;20099;-83
2022/01/07 07:37:24;;;;;;;19.00;10.63;;;3.20;99.90;;;;;;5060678;28;20066;-84
2022/01/07 07:40:09;;;;;;;15.80;9.50;;;3.20;99.90;;;;;;5075522;28;20039;-83
2022/01/07 07:42:54;;;;;;;13.20;8.60;;;3.30;99.90;;;;;;5074868;28;20048;-83
2022/01/07 07:45:38;;;;;;;17.63;10.33;;;3.30;99.90;;;;;;5075448;28;20054;-84
2022/01/07 07:48:22;;;;;;;;;;;3.30;99.90;;;;;;5075870;28;20078;-84
2022/01/07 07:51:06;;;;;;;15.23;9.48;;;3.30;99.90;;;;;;5045525;28;20553;-84
2022/01/07 07:53:51;;;;;;;18.10;10.87;;;3.40;99.90;;;;;;5059555;28;20040;-84
2022/01/07 07:56:35;;;;;;;17.40;10.57;;;3.80;99.90;;;;;;5060100;28;20059;-83
2022/01/07 07:59:20;;;;;;;17.17;10.67;;;4.10;99.90;;;;;;5060247;28;20039;-83
2022/01/07 08:02:05;;;;;;;19.90;11.37;;;3.40;99.90;;;;;;5073510;28;20044;-86
2022/01/07 08:04:50;;;;;;;18.47;12.17;;;3.50;99.90;;;;;;5059283;28;20055;-85
2022/01/07 08:07:34;;;;;;;20.47;12.67;;;3.50;99.90;;;;;;5074989;28;20137;-85
2022/01/07 08:10:23;;;;;;;;;;;3.50;99.90;;;;;;5075507;28;20044;-86
2022/01/07 08:16:02;;;;;;;;;;;3.60;99.90;;;;;;5073816;28;20188;-86
2022/01/07 08:18:53;;;;;;;;;;;3.90;99.90;;;;;;5061602;28;19920;-85
2022/01/07 08:21:38;;;;;;;23.43;12.03;;;3.60;99.90;;;;;;5074802;28;19915;-84
2022/01/07 08:24:22;;;;;;;;;;;3.60;99.90;;;;;;5075132;28;20075;-84
2022/01/07 08:27:06;;;;;;;26.48;12.85;;;3.70;99.90;;;;;;5044877;28;19965;-84
2022/01/07 08:29:51;;;;;;;24.80;13.67;;;4.70;99.90;;;;;;5045013;28;20044;-82
2022/01/07 08:35:38;;;;;;;23.77;12.93;;;3.70;99.90;;;;;;5074470;28;20102;-83
2022/01/07 08:38:23;;;;;;;22.20;13.30;;;3.80;99.90;;;;;;5045290;28;20443;-83
2022/01/07 08:41:08;;;;;;;24.20;14.33;;;4.30;99.90;;;;;;5072873;28;20036;-84
2022/01/07 08:43:52;;;;;;;22.77;16.07;;;3.80;99.90;;;;;;5074410;28;20083;-82
2022/01/07 08:46:37;;;;;;;22.30;15.40;;;4.60;99.90;;;;;;5074485;28;20094;-83
2022/01/07 08:49:21;;;;;;;26.50;15.55;;;4.70;99.90;;;;;;5059237;28;20038;-84
2022/01/07 08:52:05;;;;;;;24.13;15.10;;;4.00;99.90;;;;;;5073649;28;20109;-83
2022/01/07 08:54:52;;;;;;;26.35;14.82;;;4.10;99.90;;;;;;5074213;28;20067;-83
2022/01/07 08:57:36;;;;;;;23.30;14.80;;;4.10;99.90;;;;;;5074193;28;20123;-83
2022/01/07 09:00:21;;;;;;;28.02;15.90;;;4.10;99.90;;;;;;5059109;28;20435;-83
2022/01/07 09:03:05;;;;;;;;;;;4.20;99.90;;;;;;5072826;28;20043;-84
2022/01/07 09:05:50;;;;;;;25.77;15.02;;;4.20;99.90;;;;;;5073955;28;19920;-83
2022/01/07 09:08:34;;;;;;;24.67;14.85;;;4.50;99.90;;;;;;5059164;28;20094;-84
2022/01/07 09:11:18;;;;;;;26.30;15.98;;;4.30;99.90;;;;;;5058212;28;20047;-83
2022/01/07 09:14:02;;;;;;;;;;;4.30;99.90;;;;;;5058582;28;20040;-83
2022/01/07 09:16:46;;;;;;;26.98;16.00;;;4.80;99.90;;;;;;5058613;28;20003;-84
2022/01/07 09:19:30;;;;;;;28.02;14.57;;;4.30;99.90;;;;;;5072990;28;20040;-84
2022/01/07 09:22:15;;;;;;;29.67;17.90;;;5.10;99.90;;;;;;5071171;28;20102;-89
2022/01/07 09:24:59;;;;;;;22.40;14.37;;;4.90;99.90;;;;;;5040856;28;20516;-83
2022/01/07 09:27:43;;;;;;;28.05;15.52;;;4.60;99.90;;;;;;5072180;28;20053;-83
2022/01/07 09:30:27;;;;;;;27.70;15.75;;;4.50;99.90;;;;;;5072997;28;20417;-83
2022/01/07 09:33:11;;;;;;;;;;;4.50;99.90;;;;;;5073278;28;20031;-83
2022/01/07 09:35:56;;;;;;;26.63;15.48;;;4.80;99.90;;;;;;5071660;28;19970;-84
2022/01/07 09:38:40;;;;;;;27.42;15.43;;;4.60;99.90;;;;;;5070575;28;20119;-84
2022/01/07 09:41:25;;;;;;;21.17;15.10;;;4.70;99.90;;;;;;5057402;28;20086;-84
2022/01/07 09:44:11;;;;;;;24.15;15.23;;;4.70;99.90;;;;;;5072544;28;20153;-85
2022/01/07 09:46:56;;;;;;;26.67;16.33;;;4.70;99.90;;;;;;5072830;28;20040;-84
2022/01/07 09:49:41;;;;;;;25.27;15.27;;;4.90;99.90;;;;;;5072085;28;20043;-84
2022/01/07 09:52:25;;;;;;;32.03;16.60;;;5.10;99.90;;;;;;5071858;28;20089;-85
2022/01/07 09:55:09;;;;;;;;;;;4.70;99.90;;;;;;5073131;28;20054;-83
2022/01/07 09:57:54;;;;;;;29.35;17.75;;;4.70;99.90;;;;;;5073127;28;20383;-83
2022/01/07 10:00:41;;;;;;;27.27;17.30;;;5.20;99.90;;;;;;5073094;28;20058;-83
2022/01/07 10:03:25;;;;;;;23.92;14.75;;;4.70;99.90;;;;;;5072659;28;20043;-83
2022/01/07 10:06:17;;;;;;;;;;;4.70;99.90;;;;;;5073099;28;20083;-83
2022/01/07 10:09:12;;;;;;;16.48;9.85;;;4.70;99.90;;;;;;5072980;28;20394;-83
2022/01/07 10:12:02;;;;;;;11.00;6.28;;;4.80;99.90;;;;;;5072965;28;20558;-83
2022/01/07 10:15:06;;;;;;;11.02;5.97;;;4.60;99.90;;;;;;5072816;28;20039;-80
2022/01/07 10:18:10;;;;;;;9.30;3.95;;;4.60;99.90;;;;;;5072788;28;20039;-81
2022/01/07 10:21:07;;;;;;;8.52;3.88;;;4.60;99.90;;;;;;5073022;28;20063;-81
2022/01/07 10:24:01;;;;;;;7.80;3.58;;;4.50;99.90;;;;;;5072749;28;20101;-85
2022/01/07 10:27:14;;;;;;;4.63;2.13;;;4.80;99.90;;;;;;5072641;28;20504;-81
2022/01/07 10:29:59;;;;;;;4.35;2.45;;;4.40;99.90;;;;;;5072489;28;20040;-82
2022/01/07 10:32:43;;;;;;;6.38;2.17;;;4.50;99.90;;;;;;5072744;28;20082;-84
2022/01/07 10:35:28;;;;;;;4.28;1.88;;;4.60;99.90;;;;;;5072169;28;20318;-82
2022/01/07 10:38:16;;;;;;;;;;;4.70;99.90;;;;;;5057086;28;20404;-82
2022/01/07 10:41:02;;;;;;;4.30;1.67;;;4.60;99.90;;;;;;5072520;28;20010;-83
2022/01/07 10:43:47;;;;;;;5.25;1.88;;;4.60;99.90;;;;;;5057358;28;20451;-82
2022/01/07 10:46:31;;;;;;;5.75;2.45;;;4.60;99.90;;;;;;5072119;28;20133;-82
2022/01/07 10:49:16;;;;;;;4.78;2.50;;;4.80;99.90;;;;;;5056998;28;20167;-82
2022/01/07 10:52:00;;;;;;;7.15;3.25;;;4.50;99.90;;;;;;5072427;28;20127;-82
2022/01/07 10:54:44;;;;;;;8.38;4.13;;;4.50;99.90;;;;;;5056860;28;20036;-83
2022/01/07 10:57:39;;;;;;;;;;;4.50;99.90;;;;;;5057026;28;20503;-82
2022/01/07 11:00:26;;;;;;;7.20;3.95;;;4.50;99.90;;;;;;5072024;28;19954;-81
2022/01/07 11:03:11;;;;;;;8.57;4.00;;;4.60;99.90;;;;;;5072429;28;20039;-81
2022/01/07 11:05:55;;;;;;;7.68;4.05;;;4.60;99.90;;;;;;5057172;28;20129;-82
2022/01/07 11:08:43;;;;;;;12.70;5.68;;;5.30;99.90;;;;;;5057247;28;20043;-81
2022/01/07 11:11:30;;;;;;;9.73;5.60;;;4.50;99.90;;;;;;5071875;28;20396;-79
2022/01/07 11:14:21;;;;;;;8.82;4.85;;;4.60;99.90;;;;;;5071787;28;20487;-79
2022/01/07 11:17:08;;;;;;;11.27;5.70;;;4.80;99.90;;;;;;5072160;28;20043;-80
2022/01/07 11:19:59;;;;;;;13.90;6.28;;;4.50;99.90;;;;;;5072192;28;20040;-80
2022/01/07 11:22:47;;;;;;;14.32;6.30;;;5.60;99.90;;;;;;5043337;28;20075;-80
2022/01/07 11:25:32;;;;;;;9.80;6.43;;;4.70;99.90;;;;;;5071696;28;20097;-80
2022/01/07 11:28:18;;;;;;;11.30;6.57;;;4.60;99.90;;;;;;5071802;28;20055;-80
2022/01/07 11:31:04;;;;;;;13.02;6.72;;;5.20;99.90;;;;;;5072308;28;20064;-79
2022/01/07 11:34:22;;;;;;;13.52;7.25;;;4.60;99.90;;;;;;5056991;28;20035;-80
2022/01/07 11:37:33;;;;;;;16.02;8.30;;;4.60;99.90;;;;;;5072139;28;20125;-81
2022/01/07 11:40:45;;;;;;;16.42;8.70;;;4.60;99.90;;;;;;5056541;28;20143;-78
2022/01/07 11:43:35;;;;;;;11.68;7.90;;;4.80;99.90;;;;;;5071641;28;20055;-80
2022/01/07 11:46:28;;;;;;;25.25;10.38;;;5.00;99.90;;;;;;5056504;28;20079;-80
2022/01/07 11:49:39;;;;;;;17.20;9.00;;;4.80;99.90;;;;;;5072019;28;20090;-80
2022/01/07 11:52:36;;;;;;;18.33;9.88;;;4.80;99.90;;;;;;5059985;28;20397;-80
2022/01/07 11:55:23;;;;;;;20.05;11.05;;;4.80;99.90;;;;;;5074296;28;20549;-79
2022/01/07 11:58:08;;;;;;;18.65;10.45;;;5.30;99.90;;;;;;5074916;28;20462;-80
2022/01/07 12:00:56;;;;;;;18.98;11.38;;;5.10;99.90;;;;;;5075030;28;20039;-79
2022/01/07 12:03:42;;;;;;;18.73;10.90;;;5.20;99.90;;;;;;5067329;28;20055;-79
2022/01/07 12:06:27;;;;;;;22.75;12.40;;;4.80;99.90;;;;;;5072330;28;20527;-79
2022/01/07 12:09:20;;;;;;;17.60;10.50;;;5.70;99.90;;;;;;5073976;28;20036;-79
2022/01/07 12:12:13;;;;;;;17.13;10.40;;;6.30;99.90;;;;;;5075047;28;20043;-79
2022/01/07 12:15:02;;;;;;;17.27;8.50;;;5.10;99.90;;;;;;5075152;28;20039;-79
2022/01/07 12:17:46;;;;;;;18.17;8.55;;;4.90;99.90;;;;;;5074622;28;20035;-79
2022/01/07 12:20:50;;;;;;;15.35;7.68;;;4.90;99.90;;;;;;5059524;28;20039;-79
2022/01/07 12:23:36;;;;;;;16.33;7.28;;;5.10;99.90;;;;;;5074605;28;20040;-79
2022/01/07 12:26:24;;;;;;;14.20;7.15;;;5.00;99.90;;;;;;5059870;28;20132;-79
2022/01/07 12:29:16;;;;;;;11.45;5.53;;;5.00;99.90;;;;;;5074991;28;20040;-79
2022/01/07 12:32:02;;;;;;;11.30;4.93;;;5.20;99.90;;;;;;5075259;28;20488;-79
2022/01/07 12:34:50;;;;;;;9.07;3.95;;;5.00;99.90;;;;;;5074371;28;20086;-79
2022/01/07 12:37:35;;;;;;;8.30;3.35;;;5.00;99.90;;;;;;5074357;28;20048;-79
2022/01/07 12:40:19;;;;;;;10.05;3.70;;;5.00;99.90;;;;;;5074889;28;20039;-79
2022/01/07 12:43:04;;;;;;;14.73;3.50;;;4.90;99.90;;;;;;5074689;28;20550;-79
2022/01/07 12:46:00;;;;;;;9.18;3.20;;;4.80;99.90;;;;;;5058979;28;20051;-79
2022/01/07 12:48:45;;;;;;;11.65;3.17;;;5.50;99.90;;;;;;5074142;28;20039;-79
2022/01/07 12:51:29;;;;;;;10.70;2.55;;;4.70;99.90;;;;;;5074140;28;20060;-79
2022/01/07 12:54:14;;;;;;;10.75;2.45;;;4.80;99.90;;;;;;5045522;28;20043;-79
2022/01/07 12:56:58;;;;;;;;;;;4.80;99.90;;;;;;5074798;28;20443;-79
2022/01/07 12:59:42;;;;;;;8.18;2.05;;;4.90;99.90;;;;;;5074189;28;19950;-79
2022/01/07 13:02:29;;;;;;;;;;;4.80;99.90;;;;;;5074493;28;20086;-79
2022/01/07 13:05:15;;;;;;;6.70;1.92;;;4.70;99.90;;;;;;5074249;28;20430;-79
2022/01/07 13:08:05;;;;;;;7.80;1.80;;;4.70;99.90;;;;;;5074116;28;20051;-79
2022/01/07 13:10:50;;;;;;;6.65;2.00;;;4.70;99.90;;;;;;5073678;28;20385;-79
2022/01/07 13:13:35;;;;;;;7.13;1.80;;;4.70;99.90;;;;;;5073711;28;20059;-79
2022/01/07 13:16:22;;;;;;;;;;;5.00;99.90;;;;;;5074365;28;20056;-79
2022/01/07 13:19:08;;;;;;;5.28;1.85;;;4.70;99.90;;;;;;5074228;28;19954;-79
2022/01/07 13:21:54;;;;;;;5.47;2.30;;;4.70;99.90;;;;;;5073428;28;20170;-79
2022/01/07 13:24:38;;;;;;;12.68;2.10;;;4.80;99.90;;;;;;5058268;28;20504;-80
2022/01/07 13:27:22;;;;;;;7.15;2.28;;;5.00;99.90;;;;;;5073924;28;20127;-79
2022/01/07 13:30:06;;;;;;;5.18;1.75;;;4.50;99.90;;;;;;5073515;28;20040;-79
2022/01/07 13:33:05;;;;;;;7.87;1.67;;;4.50;99.90;;;;;;5073200;28;20405;-79
2022/01/07 13:35:55;;;;;;;10.45;2.63;;;4.80;99.90;;;;;;5073112;28;20054;-79
2022/01/07 13:38:40;;;;;;;6.25;2.63;;;4.40;99.90;;;;;;5073156;28;20090;-79
2022/01/07 13:41:24;;;;;;;14.82;3.60;;;4.40;99.90;;;;;;5073649;28;20562;-79
2022/01/07 13:44:08;;;;;;;;;;;4.50;99.90;;;;;;5073968;28;20039;-80
2022/01/07 13:46:55;;;;;;;9.27;2.72;;;4.50;99.90;;;;;;5073021;28;20326;-79
2022/01/07 13:49:40;;;;;;;8.85;3.40;;;4.60;99.90;;;;;;5072994;28;20089;-79
2022/01/07 13:52:29;;;;;;;7.82;3.53;;;4.60;99.90;;;;;;5044340;28;20496;-79
2022/01/07 13:55:29;;;;;;;11.80;4.10;;;5.20;99.90;;;;;;5073119;28;20412;-79
2022/01/07 13:58:18;;;;;;;14.98;5.03;;;4.50;99.90;;;;;;5073322;28;20086;-79
2022/01/07 14:01:06;;;;;;;16.35;4.32;;;4.50;99.90;;;;;;5073361;28;20047;-79
2022/01/07 14:03:52;;;;;;;12.88;3.90;;;4.50;99.90;;;;;;5072626;28;20048;-79
2022/01/07 14:06:41;;;;;;;8.85;3.85;;;4.60;99.90;;;;;;5073029;28;20089;-79
2022/01/07 14:09:25;;;;;;;11.52;4.10;;;4.50;99.90;;;;;;5058113;28;20442;-79
2022/01/07 14:12:09;;;;;;;;;;;4.40;99.90;;;;;;5073215;28;20090;-79
2022/01/07 14:15:04;;;;;;;11.15;3.97;;;4.40;99.90;;;;;;5057089;28;19915;-79
2022/01/07 14:17:50;;;;;;;11.30;3.75;;;4.40;99.90;;;;;;5072461;28;20405;-79
2022/01/07 14:20:39;;;;;;;7.65;3.75;;;3.90;99.90;;;;;;5072803;28;20059;-79
2022/01/07 14:23:25;;;;;;;9.65;4.40;;;4.30;99.90;;;;;;5072777;28;20090;-79
2022/01/07 14:26:12;;;;;;;14.73;4.72;;;5.00;99.90;;;;;;5072788;28;20044;-79
2022/01/07 14:28:59;;;;;;;10.57;4.25;;;4.30;99.90;;;;;;5072338;28;20085;-79
2022/01/07 14:31:43;;;;;;;10.57;4.22;;;4.20;99.90;;;;;;5057589;28;20538;-79
2022/01/07 14:34:27;;;;;;;;;;;4.70;99.90;;;;;;5058014;28;20093;-79
2022/01/07 14:37:12;;;;;;;11.77;3.85;;;4.60;99.90;;;;;;5072876;28;20338;-79
2022/01/07 14:39:56;;;;;;;;;;;4.30;99.90;;;;;;5057492;28;20072;-79
2022/01/07 14:42:41;;;;;;;10.13;3.60;;;4.30;99.90;;;;;;5072737;28;19915;-79
2022/01/07 14:45:25;;;;;;;11.47;4.33;;;4.60;99.90;;;;;;5072628;28;20089;-79
2022/01/07 14:48:09;;;;;;;11.88;4.03;;;4.40;99.90;;;;;;5057722;28;20442;-79
2022/01/07 14:50:53;;;;;;;9.07;3.93;;;4.60;99.90;;;;;;5072070;28;20058;-79